createdAt,value
2023-05-22T00:00:28.586Z,52.01
2023-05-22T00:03:17.207Z,50.94
2023-05-22T00:05:45.932Z,51.27
2023-05-22T00:08:14.719Z,51.11
2023-05-22T00:10:43.429Z,51.01
2023-05-22T00:13:11.957Z,50.39
2023-05-22T00:15:40.495Z,52.26
2023-05-22T00:18:09.297Z,53.80
2023-05-22T00:20:39.549Z,54.44
2023-05-22T00:23:11.365Z,56.29
2023-05-22T00:25:41.542Z,54.30
2023-05-22T00:28:12.208Z,55.26
2023-05-22T00:30:40.989Z,52.54
2023-05-22T00:33:10.039Z,54.20
2023-05-22T00:35:38.782Z,54.14
2023-05-22T00:38:08.774Z,53.17
2023-05-22T00:40:37.769Z,52.39
2023-05-22T00:43:08.906Z,52.59
2023-05-22T00:45:38.364Z,53.15
2023-05-22T00:48:09.928Z,54.87
2023-05-22T00:50:38.803Z,60.29
2023-05-22T00:53:09.809Z,61.02
2023-05-22T00:55:38.598Z,60.75
2023-05-22T00:58:11.716Z,60.69
2023-05-22T01:00:42.819Z,63.93
2023-05-22T01:03:11.866Z,62.37
2023-05-22T01:05:42.379Z,61.76
2023-05-22T01:08:12.225Z,64.15
2023-05-22T01:10:41.613Z,66.11
2023-05-22T01:13:43.255Z,65.44
2023-05-22T01:16:21.053Z,66.37
2023-05-22T01:19:21.987Z,66.14
2023-05-22T01:22:02.624Z,68.44
2023-05-22T01:25:00.547Z,67.88
2023-05-22T01:27:51.972Z,68.18
2023-05-22T01:30:40.847Z,70.09
2023-05-22T01:33:13.633Z,69.24
2023-05-22T01:35:45.834Z,70.60
2023-05-22T01:38:15.977Z,70.21
2023-05-22T01:40:46.751Z,72.85
2023-05-22T01:43:16.589Z,73.52
2023-05-22T01:45:47.179Z,71.98
2023-05-22T01:48:16.347Z,72.78
2023-05-22T01:50:45.865Z,72.98
2023-05-22T01:53:56.292Z,71.38
2023-05-22T01:56:57.982Z,72.60
2023-05-22T01:59:48.643Z,72.79
2023-05-22T02:02:20.853Z,72.86
2023-05-22T02:04:57.625Z,73.55
2023-05-22T02:07:27.938Z,74.44
2023-05-22T02:09:58.912Z,74.07
2023-05-22T02:12:28.121Z,73.93
2023-05-22T02:14:57.301Z,74.36
2023-05-22T02:17:26.433Z,75.64
2023-05-22T02:19:55.102Z,75.99
2023-05-22T02:22:23.821Z,76.80
2023-05-22T02:24:52.460Z,75.84
2023-05-22T02:27:21.083Z,76.24
2023-05-22T02:29:49.751Z,76.46
2023-05-22T02:32:18.845Z,76.46
2023-05-22T02:34:48.468Z,76.41
2023-05-22T02:37:17.058Z,76.18
2023-05-22T02:39:45.750Z,77.39
2023-05-22T02:42:14.354Z,77.18
2023-05-22T02:44:42.880Z,76.45
2023-05-22T02:47:11.566Z,77.33
2023-05-22T02:49:41.199Z,76.14
2023-05-22T02:52:09.821Z,76.75
2023-05-22T02:54:38.425Z,75.62
2023-05-22T02:57:07.066Z,75.48
2023-05-22T02:59:37.017Z,76.51
2023-05-22T03:02:06.368Z,76.04
2023-05-22T03:04:38.638Z,76.87
2023-05-22T03:07:07.563Z,76.21
2023-05-22T03:09:36.190Z,75.46
2023-05-22T03:12:05.684Z,75.62
2023-05-22T03:14:35.226Z,76.29
2023-05-22T03:17:04.243Z,76.99
2023-05-22T03:19:33.155Z,75.65
2023-05-22T03:22:02.064Z,76.35
2023-05-22T03:24:31.685Z,75.62
2023-05-22T03:27:01.157Z,76.37
2023-05-22T03:29:37.288Z,76.68
2023-05-22T03:32:07.085Z,76.57
2023-05-22T03:34:36.258Z,76.24
2023-05-22T03:37:06.146Z,76.08
2023-05-22T03:39:36.225Z,76.83
2023-05-22T03:42:16.424Z,76.59
2023-05-22T03:44:45.179Z,76.59
2023-05-22T03:47:14.063Z,76.15
2023-05-22T03:49:42.809Z,76.65
2023-05-22T03:52:11.625Z,76.17
2023-05-22T03:54:40.453Z,76.08
2023-05-22T03:57:09.196Z,75.49
2023-05-22T03:59:37.971Z,75.12
2023-05-22T04:02:06.963Z,75.01
2023-05-22T04:04:38.856Z,74.33
2023-05-22T04:07:09.267Z,74.18
2023-05-22T04:09:38.100Z,74.19
2023-05-22T04:12:08.080Z,73.68
2023-05-22T04:14:36.759Z,73.34
2023-05-22T04:17:05.456Z,72.57
2023-05-22T04:19:34.139Z,72.15
2023-05-22T04:22:02.946Z,71.71
2023-05-22T04:24:31.741Z,71.46
2023-05-22T04:27:02.549Z,71.52
2023-05-22T04:29:31.367Z,71.02
2023-05-22T04:32:00.419Z,71.30
2023-05-22T04:34:30.456Z,70.95
2023-05-22T04:37:00.300Z,70.81
2023-05-22T04:39:30.712Z,70.82
2023-05-22T04:42:06.152Z,70.20
2023-05-22T04:44:34.858Z,69.53
2023-05-22T04:47:06.917Z,68.57
2023-05-22T04:49:36.514Z,68.45
2023-05-22T04:52:08.730Z,68.13
2023-05-22T04:54:37.939Z,67.10
2023-05-22T04:57:06.630Z,65.91
2023-05-22T04:59:41.688Z,66.19
2023-05-22T05:02:11.036Z,65.08
2023-05-22T05:04:39.969Z,64.08
2023-05-22T05:07:09.251Z,63.62
2023-05-22T05:09:37.871Z,63.35
2023-05-22T05:12:06.973Z,62.56
2023-05-22T05:14:35.579Z,61.78
2023-05-22T05:17:04.852Z,61.52
2023-05-22T05:19:36.870Z,61.29
2023-05-22T05:22:06.243Z,61.24
2023-05-22T05:24:35.285Z,61.15
2023-05-22T05:27:04.790Z,60.15
2023-05-22T05:29:33.907Z,60.02
2023-05-22T05:32:09.303Z,59.97
2023-05-22T05:34:49.829Z,59.79
2023-05-22T05:37:37.124Z,59.08
2023-05-22T05:40:09.557Z,58.84
2023-05-22T05:42:42.229Z,58.93
2023-05-22T05:45:14.399Z,58.89
2023-05-22T05:47:44.185Z,58.67
2023-05-22T05:50:15.848Z,58.32
2023-05-22T05:52:45.327Z,58.25
2023-05-22T05:55:17.609Z,57.96
2023-05-22T05:57:46.468Z,58.06
2023-05-22T06:00:22.780Z,58.01
2023-05-22T06:02:52.466Z,57.61
2023-05-22T06:05:46.026Z,57.51
2023-05-22T06:08:45.023Z,57.02
2023-05-22T06:11:15.095Z,56.56
2023-05-22T06:13:52.916Z,56.70
2023-05-22T06:16:22.027Z,56.68
2023-05-22T06:18:52.748Z,56.62
2023-05-22T06:21:21.486Z,56.04
2023-05-22T06:23:51.814Z,56.10
2023-05-22T06:26:20.726Z,56.07
2023-05-22T06:28:51.957Z,55.94
2023-05-22T06:31:23.088Z,55.83
2023-05-22T06:33:52.369Z,54.96
2023-05-22T06:36:21.745Z,54.80
2023-05-22T06:38:50.393Z,54.49
2023-05-22T06:41:38.966Z,55.02
2023-05-22T06:44:08.801Z,54.68
2023-05-22T06:46:40.213Z,54.60
2023-05-22T06:49:08.998Z,54.30
2023-05-22T06:51:44.768Z,53.35
2023-05-22T06:54:15.347Z,53.34
2023-05-22T06:56:46.158Z,53.36
2023-05-22T06:59:18.980Z,53.30
2023-05-22T07:02:12.833Z,52.94
2023-05-22T07:05:22.398Z,52.80
2023-05-22T07:07:55.922Z,51.92
2023-05-22T07:10:28.147Z,52.01
2023-05-22T07:12:58.958Z,51.79
2023-05-22T07:15:27.626Z,51.32
2023-05-22T07:17:57.801Z,51.33
2023-05-22T07:20:26.520Z,51.19
2023-05-22T07:23:12.625Z,50.97
2023-05-22T07:25:41.377Z,50.73
2023-05-22T07:28:10.884Z,50.70
2023-05-22T07:30:47.819Z,50.88
2023-05-22T07:33:18.397Z,50.61
2023-05-22T07:35:47.215Z,50.72
2023-05-22T07:38:16.069Z,50.34
2023-05-22T07:40:50.643Z,50.29
2023-05-22T07:43:21.942Z,50.03
2023-05-22T07:45:51.738Z,49.59
2023-05-22T07:48:22.179Z,49.36
2023-05-22T07:50:52.958Z,49.31
2023-05-22T07:53:21.935Z,49.52
2023-05-22T07:55:52.137Z,49.26
2023-05-22T07:58:21.142Z,48.96
2023-05-22T08:00:51.202Z,49.19
2023-05-22T08:03:22.283Z,49.28
2023-05-22T08:05:52.672Z,49.52
2023-05-22T08:08:21.387Z,49.49
2023-05-22T08:11:03.085Z,49.20
2023-05-22T08:13:33.118Z,49.09
2023-05-22T08:16:01.843Z,48.57
2023-05-22T08:18:30.776Z,48.14
2023-05-22T08:21:00.736Z,47.15
2023-05-22T08:23:30.109Z,46.62
2023-05-22T08:25:58.766Z,46.61
2023-05-22T08:28:27.450Z,46.74
2023-05-22T08:30:56.130Z,46.55
2023-05-22T08:33:24.864Z,46.60
2023-05-22T08:35:53.549Z,46.06
2023-05-22T08:38:22.167Z,45.73
2023-05-22T08:40:54.476Z,45.57
2023-05-22T08:43:23.881Z,45.66
2023-05-22T08:46:03.665Z,45.64
2023-05-22T08:48:33.502Z,46.05
2023-05-22T08:51:06.296Z,45.89
2023-05-22T08:54:16.651Z,45.77
2023-05-22T08:56:56.289Z,45.40
2023-05-22T08:59:26.291Z,44.58
2023-05-22T09:01:55.177Z,44.48
2023-05-22T09:04:25.405Z,44.81
2023-05-22T09:06:55.290Z,44.64
2023-05-22T09:09:24.131Z,44.79
2023-05-22T09:11:55.116Z,44.24
2023-05-22T09:14:25.395Z,43.92
2023-05-22T09:16:55.207Z,43.57
2023-05-22T09:19:23.881Z,43.03
2023-05-22T09:21:52.626Z,42.92
2023-05-22T09:24:21.430Z,42.14
2023-05-22T09:26:52.762Z,41.22
2023-05-22T09:29:22.733Z,40.37
2023-05-22T09:31:51.640Z,41.15
2023-05-22T09:34:20.581Z,40.41
2023-05-22T09:36:50.357Z,40.82
2023-05-22T09:39:19.094Z,40.19
2023-05-22T09:41:47.739Z,40.02
2023-05-22T09:44:16.824Z,40.24
2023-05-22T09:46:47.817Z,39.39
2023-05-22T09:49:17.585Z,39.65
2023-05-22T09:51:49.703Z,39.32
2023-05-22T09:54:22.139Z,39.53
2023-05-22T09:56:54.939Z,39.56
2023-05-22T09:59:30.406Z,38.89
2023-05-22T10:02:02.299Z,38.32
2023-05-22T10:04:33.567Z,38.09
2023-05-22T10:07:03.951Z,36.75
2023-05-22T10:09:36.110Z,37.32
2023-05-22T10:12:08.443Z,37.22
2023-05-22T10:14:37.168Z,36.74
2023-05-22T10:17:07.118Z,36.74
2023-05-22T10:19:38.579Z,36.93
2023-05-22T10:22:11.858Z,37.48
2023-05-22T10:24:41.458Z,37.55
2023-05-22T10:27:10.178Z,37.73
2023-05-22T10:29:55.852Z,37.71
2023-05-22T10:32:50.843Z,38.07
2023-05-22T10:39:37.887Z,39.87
2023-05-22T10:42:13.033Z,39.89
2023-05-22T10:44:43.833Z,39.49
2023-05-22T10:47:13.714Z,39.27
2023-05-22T10:49:45.719Z,39.02
2023-05-22T10:52:15.205Z,38.84
2023-05-22T10:54:46.084Z,38.85
2023-05-22T10:57:17.105Z,39.07
2023-05-22T10:59:48.990Z,37.88
2023-05-22T11:02:30.004Z,37.73
2023-05-22T11:05:21.794Z,37.43
2023-05-22T11:07:50.808Z,37.34
2023-05-22T11:10:59.393Z,37.86
2023-05-22T11:13:29.682Z,38.31
2023-05-22T11:15:58.598Z,38.42
2023-05-22T11:19:21.219Z,38.63
2023-05-22T11:21:52.198Z,38.63
2023-05-22T11:24:20.945Z,38.03
2023-05-22T11:27:06.881Z,37.91
2023-05-22T11:29:35.969Z,37.21
2023-05-22T11:32:09.440Z,36.85
2023-05-22T11:34:40.858Z,36.32
2023-05-22T11:37:10.045Z,36.35
2023-05-22T11:39:38.942Z,35.72
2023-05-22T11:42:07.714Z,35.87
2023-05-22T11:44:40.945Z,35.43
2023-05-22T11:47:09.827Z,35.69
2023-05-22T11:49:38.608Z,35.75
2023-05-22T11:52:07.882Z,33.96
2023-05-22T11:54:38.757Z,31.54
2023-05-22T11:57:09.690Z,31.12
2023-05-22T11:59:38.318Z,32.07
2023-05-22T12:02:09.952Z,32.90
2023-05-22T12:04:38.681Z,33.32
2023-05-22T12:07:08.294Z,33.85
2023-05-22T12:09:40.773Z,34.06
2023-05-22T12:12:12.549Z,34.18
2023-05-22T12:14:47.672Z,34.26
2023-05-22T12:17:18.330Z,34.05
2023-05-22T12:19:47.853Z,34.50
2023-05-22T12:22:16.639Z,34.32
2023-05-22T12:24:48.851Z,34.25
2023-05-22T12:27:17.642Z,34.28
2023-05-22T12:29:46.328Z,33.81
2023-05-22T12:32:14.944Z,33.02
2023-05-22T12:34:46.026Z,32.47
2023-05-22T12:37:25.359Z,31.96
2023-05-22T12:40:04.925Z,32.05
2023-05-22T12:42:33.645Z,32.23
2023-05-22T12:45:02.224Z,32.32
2023-05-22T12:47:30.948Z,32.42
2023-05-22T12:49:59.579Z,32.44
2023-05-22T12:52:29.545Z,31.81
2023-05-22T12:54:58.591Z,31.92
2023-05-22T12:57:27.512Z,31.66
2023-05-22T12:59:56.112Z,31.20
2023-05-22T13:02:25.108Z,31.49
2023-05-22T13:04:53.921Z,31.27
2023-05-22T13:07:22.776Z,31.10
2023-05-22T13:09:51.819Z,31.18
2023-05-22T13:12:20.817Z,30.97
2023-05-22T13:14:49.623Z,31.44
2023-05-22T13:17:18.402Z,31.15
2023-05-22T13:19:47.227Z,31.23
2023-05-22T13:22:15.934Z,30.47
2023-05-22T13:24:44.845Z,30.66
2023-05-22T13:27:13.634Z,30.76
2023-05-22T13:29:42.254Z,30.94
2023-05-22T13:32:14.058Z,30.92
2023-05-22T13:34:42.711Z,30.76
2023-05-22T13:37:11.798Z,30.47
2023-05-22T13:39:41.163Z,30.83
2023-05-22T13:42:09.920Z,30.69
2023-05-22T13:44:39.334Z,30.73
2023-05-22T13:47:08.125Z,30.84
2023-05-22T13:49:36.733Z,30.76
2023-05-22T13:52:05.866Z,30.95
2023-05-22T13:54:34.644Z,30.55
2023-05-22T13:57:03.220Z,30.28
2023-05-22T13:59:31.892Z,30.13
2023-05-22T14:02:00.632Z,29.63
2023-05-22T14:04:29.537Z,29.17
2023-05-22T14:06:59.910Z,29.24
2023-05-22T14:09:28.801Z,29.42
2023-05-22T14:12:00.588Z,29.91
2023-05-22T14:14:29.199Z,30.15
2023-05-22T14:16:58.178Z,29.92
2023-05-22T14:19:26.920Z,29.79
2023-05-22T14:21:55.747Z,29.80
2023-05-22T14:24:24.328Z,29.82
2023-05-22T14:26:58.144Z,29.36
2023-05-22T14:29:28.751Z,29.27
2023-05-22T14:32:04.437Z,29.03
2023-05-22T14:34:33.335Z,28.95
2023-05-22T14:37:02.090Z,29.00
2023-05-22T14:39:30.790Z,29.02
2023-05-22T14:41:59.575Z,28.88
2023-05-22T14:44:28.334Z,28.88
2023-05-22T14:46:57.242Z,28.61
2023-05-22T14:49:25.872Z,28.43
2023-05-22T14:51:54.863Z,28.54
2023-05-22T14:54:24.138Z,28.71
2023-05-22T14:56:52.916Z,28.67
2023-05-22T14:59:21.580Z,28.69
2023-05-22T15:02:00.394Z,28.81
2023-05-22T15:04:29.104Z,29.00
2023-05-22T15:06:57.938Z,28.79
2023-05-22T15:09:26.639Z,29.03
2023-05-22T15:11:56.005Z,28.87
2023-05-22T15:14:24.671Z,27.99
2023-05-22T15:16:53.365Z,27.07
2023-05-22T15:19:22.158Z,27.51
2023-05-22T15:21:50.989Z,27.40
2023-05-22T15:24:19.524Z,26.79
2023-05-22T15:26:49.547Z,26.71
2023-05-22T15:29:18.414Z,25.21
2023-05-22T15:31:47.660Z,25.79
2023-05-22T15:34:16.511Z,25.61
2023-05-22T15:36:45.129Z,25.13
2023-05-22T15:39:13.939Z,25.09
2023-05-22T15:41:48.827Z,24.82
2023-05-22T15:44:23.770Z,24.80
2023-05-22T15:46:52.496Z,24.86
2023-05-22T15:49:21.309Z,24.83
2023-05-22T15:51:50.116Z,24.47
2023-05-22T15:54:18.953Z,24.55
2023-05-22T15:56:47.755Z,24.51
2023-05-22T15:59:16.412Z,24.09
2023-05-22T16:01:45.340Z,24.21
2023-05-22T16:04:14.268Z,24.05
2023-05-22T16:06:43.243Z,23.87
2023-05-22T16:09:12.674Z,23.97
2023-05-22T16:11:41.643Z,23.94
2023-05-22T16:14:10.650Z,24.24
2023-05-22T16:16:39.297Z,24.45
2023-05-22T16:19:08.121Z,24.96
2023-05-22T16:21:37.169Z,25.33
2023-05-22T16:24:07.277Z,25.30
2023-05-22T16:26:37.894Z,25.18
2023-05-22T16:29:11.252Z,24.98
2023-05-22T16:31:39.965Z,24.69
2023-05-22T16:34:08.758Z,24.85
2023-05-22T16:36:37.257Z,24.56
2023-05-22T16:39:05.934Z,24.96
2023-05-22T16:41:34.714Z,24.76
2023-05-22T16:44:04.051Z,24.76
2023-05-22T16:46:32.931Z,25.01
2023-05-22T16:49:01.840Z,25.20
2023-05-22T16:51:32.224Z,25.31
2023-05-22T16:54:00.993Z,25.28
2023-05-22T16:56:32.952Z,25.52
2023-05-22T16:59:02.172Z,25.57
2023-05-22T17:01:31.964Z,26.13
2023-05-22T17:04:00.715Z,26.80
2023-05-22T17:06:30.256Z,27.33
2023-05-22T17:08:59.023Z,27.46
2023-05-22T17:11:27.906Z,27.88
2023-05-22T17:13:56.603Z,28.53
2023-05-22T17:16:25.407Z,29.17
2023-05-22T17:18:55.074Z,29.86
2023-05-22T17:21:24.354Z,30.24
2023-05-22T17:23:52.857Z,30.72
2023-05-22T17:26:21.612Z,31.35
2023-05-22T17:28:50.335Z,31.48
2023-05-22T17:31:19.046Z,32.30
2023-05-22T17:33:48.019Z,32.80
2023-05-22T17:36:17.164Z,33.09
2023-05-22T17:38:46.327Z,33.50
2023-05-22T17:41:16.186Z,33.60
2023-05-22T17:43:47.177Z,33.54
2023-05-22T17:46:16.707Z,34.11
2023-05-22T17:48:45.477Z,34.17
2023-05-22T17:51:14.320Z,34.42
2023-05-22T17:53:43.355Z,34.62
2023-05-22T17:56:12.072Z,35.03
2023-05-22T17:58:41.609Z,34.95
2023-05-22T18:01:10.759Z,35.37
2023-05-22T18:03:39.720Z,35.41
2023-05-22T18:06:08.716Z,35.60
2023-05-22T18:08:37.544Z,36.03
2023-05-22T18:11:06.384Z,36.47
2023-05-22T18:13:35.391Z,35.85
2023-05-22T18:16:04.707Z,36.35
2023-05-22T18:18:33.971Z,36.41
2023-05-22T18:21:03.715Z,36.37
2023-05-22T18:23:33.042Z,36.42
2023-05-22T18:26:02.070Z,36.93
2023-05-22T18:28:31.034Z,36.71
2023-05-22T18:31:01.621Z,36.98
2023-05-22T18:33:31.642Z,37.17
2023-05-22T18:36:01.060Z,37.10
2023-05-22T18:38:31.153Z,37.41
2023-05-22T18:41:00.460Z,37.63
2023-05-22T18:43:29.802Z,37.40
2023-05-22T18:45:59.148Z,38.34
2023-05-22T18:48:28.532Z,38.80
2023-05-22T18:50:58.105Z,40.21
2023-05-22T18:53:27.832Z,40.51
2023-05-22T18:55:56.711Z,39.92
2023-05-22T18:58:25.789Z,40.13
2023-05-22T19:00:56.033Z,39.98
2023-05-22T19:03:25.085Z,40.88
2023-05-22T19:05:53.897Z,40.71
2023-05-22T19:08:25.163Z,40.46
2023-05-22T19:11:00.009Z,40.73
2023-05-22T19:13:29.462Z,40.13
2023-05-22T19:15:58.471Z,40.57
2023-05-22T19:18:28.672Z,40.64
2023-05-22T19:20:57.555Z,40.85
2023-05-22T19:23:26.306Z,40.62
2023-05-22T19:25:58.375Z,40.75
2023-05-22T19:28:28.036Z,41.35
2023-05-22T19:31:00.722Z,42.83
2023-05-22T19:33:31.535Z,43.01
2023-05-22T19:36:03.589Z,43.39
2023-05-22T19:38:33.045Z,43.93
2023-05-22T19:41:02.652Z,44.18
2023-05-22T19:43:31.527Z,43.98
2023-05-22T19:46:00.817Z,44.56
2023-05-22T19:48:33.357Z,45.37
2023-05-22T19:51:04.100Z,45.56
2023-05-22T19:53:34.349Z,45.96
2023-05-22T19:56:03.009Z,46.04
2023-05-22T19:58:31.764Z,46.39
2023-05-22T20:01:00.840Z,46.57
2023-05-22T20:03:30.250Z,47.44
2023-05-22T20:06:01.537Z,48.08
2023-05-22T20:08:30.471Z,47.95
2023-05-22T20:10:59.224Z,47.73
2023-05-22T20:13:27.960Z,47.33
2023-05-22T20:15:57.413Z,48.67
2023-05-22T20:18:26.169Z,47.92
2023-05-22T20:20:54.922Z,47.81
2023-05-22T20:23:23.741Z,49.09
2023-05-22T20:25:52.227Z,47.93
2023-05-22T20:28:20.862Z,49.20
2023-05-22T20:30:50.168Z,48.83
2023-05-22T20:33:19.531Z,49.38
2023-05-22T20:35:49.339Z,49.41
2023-05-22T20:38:20.144Z,50.75
2023-05-22T20:40:48.824Z,50.47
2023-05-22T20:43:18.654Z,50.71
2023-05-22T20:45:49.243Z,51.01
2023-05-22T20:48:19.209Z,51.27
2023-05-22T20:53:53.662Z,51.87
2023-05-22T20:56:22.223Z,52.45
2023-05-22T20:58:50.977Z,52.36
2023-05-22T21:01:19.784Z,55.03
2023-05-22T21:03:50.203Z,54.71
2023-05-22T21:06:19.254Z,54.79
2023-05-22T21:08:47.809Z,54.78
2023-05-22T21:11:18.147Z,54.83
2023-05-22T21:13:46.818Z,54.79
2023-05-22T21:16:15.389Z,55.39
2023-05-22T21:18:44.188Z,55.51
2023-05-22T21:21:16.604Z,56.04
2023-05-22T21:23:45.438Z,56.18
2023-05-22T21:26:14.306Z,56.98
2023-05-22T21:28:43.993Z,56.05
2023-05-22T21:31:12.619Z,59.25
2023-05-22T21:33:41.427Z,59.65
2023-05-22T21:36:10.082Z,58.70
2023-05-22T21:38:38.568Z,57.71
2023-05-22T21:41:07.275Z,59.74
2023-05-22T21:43:35.969Z,59.74
2023-05-22T21:46:05.386Z,60.69
2023-05-22T21:48:34.132Z,59.43
2023-05-22T21:51:02.851Z,61.14
2023-05-22T21:53:31.569Z,61.35
2023-05-22T21:56:00.270Z,61.13
2023-05-22T21:58:28.881Z,59.33
2023-05-22T22:00:57.603Z,60.00
2023-05-22T22:03:26.368Z,60.87
2023-05-22T22:05:55.069Z,61.19
2023-05-22T22:08:23.714Z,60.46
2023-05-22T22:10:52.758Z,62.46
2023-05-22T22:13:21.434Z,61.90
2023-05-22T22:15:50.299Z,61.44
2023-05-22T22:18:19.120Z,62.42
2023-05-22T22:20:50.397Z,61.42
2023-05-22T22:23:19.448Z,61.37
2023-05-22T22:25:49.155Z,60.76
2023-05-22T22:28:17.671Z,63.10
2023-05-22T22:30:48.033Z,63.46
2023-05-22T22:33:16.672Z,64.25
2023-05-22T22:35:46.134Z,63.04
2023-05-22T22:38:14.938Z,64.59
2023-05-22T22:40:43.784Z,65.29
2023-05-22T22:43:12.530Z,65.50
2023-05-22T22:45:41.384Z,65.26
2023-05-22T22:48:10.188Z,66.25
2023-05-22T22:50:39.084Z,65.38
2023-05-22T22:53:08.235Z,66.60
2023-05-22T22:55:36.997Z,65.61
2023-05-22T22:58:05.535Z,66.16
2023-05-22T23:00:34.115Z,66.69
2023-05-22T23:03:03.235Z,66.66
2023-05-22T23:05:32.074Z,66.95
2023-05-22T23:08:03.174Z,67.95
2023-05-22T23:10:31.937Z,68.14
2023-05-22T23:13:00.514Z,69.78
2023-05-22T23:15:29.287Z,69.78
2023-05-22T23:17:57.834Z,69.28
2023-05-22T23:20:26.649Z,69.38
2023-05-22T23:22:55.513Z,69.64
2023-05-22T23:25:24.404Z,71.09
2023-05-22T23:27:53.008Z,70.33
2023-05-22T23:30:21.702Z,70.55
2023-05-22T23:32:50.890Z,71.66
2023-05-22T23:35:19.685Z,71.99
2023-05-22T23:37:48.302Z,71.35
2023-05-22T23:40:17.117Z,72.22
2023-05-22T23:42:45.753Z,70.85
2023-05-22T23:45:14.294Z,71.70
2023-05-22T23:47:42.878Z,72.04
2023-05-22T23:50:11.866Z,73.39
2023-05-22T23:52:40.989Z,72.56
2023-05-22T23:55:09.880Z,72.65
2023-05-22T23:57:38.547Z,73.53
